sensor_id;sensor_type;location;lat;lon;timestamp;pressure;altitude;pressure_sealevel;temperature;humidity
26443;BME280;5563;52.296;6.806;2023-04-28T00:02:07;101398.66;;;7.45;57.95
26443;BME280;5563;52.296;6.806;2023-04-28T00:04:36;101416.69;;;7.54;58.20
26443;BME280;5563;52.296;6.806;2023-04-28T00:07:12;101405.78;;;7.45;57.98
26443;BME280;5563;52.296;6.806;2023-04-28T00:09:46;101402.25;;;7.44;58.41
26443;BME280;5563;52.296;6.806;2023-04-28T00:12:20;101396.00;;;7.45;58.14
26443;BME280;5563;52.296;6.806;2023-04-28T00:14:47;101391.56;;;7.46;58.29
26443;BME280;5563;52.296;6.806;2023-04-28T00:17:20;101396.75;;;7.47;58.89
26443;BME280;5563;52.296;6.806;2023-04-28T00:19:53;101391.66;;;7.44;58.37
26443;BME280;5563;52.296;6.806;2023-04-28T00:22:27;101393.63;;;7.41;58.59
26443;BME280;5563;52.296;6.806;2023-04-28T00:25:01;101382.44;;;7.36;58.15
26443;BME280;5563;52.296;6.806;2023-04-28T00:27:36;101376.28;;;7.35;58.71
26443;BME280;5563;52.296;6.806;2023-04-28T00:30:11;101368.13;;;7.38;58.62
26443;BME280;5563;52.296;6.806;2023-04-28T00:32:38;101360.34;;;7.35;58.97
26443;BME280;5563;52.296;6.806;2023-04-28T00:35:12;101357.59;;;7.37;58.86
26443;BME280;5563;52.296;6.806;2023-04-28T00:37:42;101343.78;;;7.32;58.78
26443;BME280;5563;52.296;6.806;2023-04-28T00:40:17;101341.88;;;7.34;58.67
26443;BME280;5563;52.296;6.806;2023-04-28T00:42:44;101304.22;;;7.13;58.73
26443;BME280;5563;52.296;6.806;2023-04-28T00:45:23;101327.28;;;7.27;58.44
26443;BME280;5563;52.296;6.806;2023-04-28T00:47:56;101323.88;;;7.25;58.76
26443;BME280;5563;52.296;6.806;2023-04-28T00:50:29;101317.69;;;7.24;58.26
26443;BME280;5563;52.296;6.806;2023-04-28T00:52:59;101304.97;;;7.15;58.67
26443;BME280;5563;52.296;6.806;2023-04-28T00:55:34;101329.84;;;7.28;58.27
26443;BME280;5563;52.296;6.806;2023-04-28T00:58:08;101308.19;;;7.20;57.97
26443;BME280;5563;52.296;6.806;2023-04-28T01:00:43;101303.28;;;7.14;58.86
26443;BME280;5563;52.296;6.806;2023-04-28T01:03:13;101303.38;;;7.13;58.73
26443;BME280;5563;52.296;6.806;2023-04-28T01:05:47;101308.41;;;7.17;58.22
26443;BME280;5563;52.296;6.806;2023-04-28T01:08:27;101305.66;;;7.19;58.50
26443;BME280;5563;52.296;6.806;2023-04-28T01:11:03;101285.94;;;7.09;58.58
26443;BME280;5563;52.296;6.806;2023-04-28T01:13:36;101296.94;;;7.17;58.43
26443;BME280;5563;52.296;6.806;2023-04-28T01:16:16;101299.69;;;7.15;59.14
26443;BME280;5563;52.296;6.806;2023-04-28T01:18:59;101285.38;;;7.04;58.53
26443;BME280;5563;52.296;6.806;2023-04-28T01:21:33;101297.66;;;7.05;58.85
26443;BME280;5563;52.296;6.806;2023-04-28T01:24:07;101291.88;;;6.98;58.92
26443;BME280;5563;52.296;6.806;2023-04-28T01:26:41;101286.66;;;6.97;59.13
26443;BME280;5563;52.296;6.806;2023-04-28T01:29:14;101273.56;;;6.94;59.07
26443;BME280;5563;52.296;6.806;2023-04-28T01:31:48;101252.41;;;6.78;58.84
26443;BME280;5563;52.296;6.806;2023-04-28T01:34:21;101280.94;;;6.89;59.36
26443;BME280;5563;52.296;6.806;2023-04-28T01:36:48;101266.34;;;6.82;59.28
26443;BME280;5563;52.296;6.806;2023-04-28T01:39:22;101278.00;;;6.79;59.51
26443;BME280;5563;52.296;6.806;2023-04-28T01:41:49;101263.47;;;6.71;59.54
26443;BME280;5563;52.296;6.806;2023-04-28T01:44:23;101262.31;;;6.61;59.86
26443;BME280;5563;52.296;6.806;2023-04-28T01:46:50;101249.00;;;6.46;60.04
26443;BME280;5563;52.296;6.806;2023-04-28T01:49:23;101263.00;;;6.48;60.50
26443;BME280;5563;52.296;6.806;2023-04-28T01:51:50;101250.19;;;6.41;60.47
26443;BME280;5563;52.296;6.806;2023-04-28T01:54:23;101266.44;;;6.50;60.23
26443;BME280;5563;52.296;6.806;2023-04-28T01:56:50;101261.03;;;6.52;60.31
26443;BME280;5563;52.296;6.806;2023-04-28T01:59:23;101264.56;;;6.52;60.26
26443;BME280;5563;52.296;6.806;2023-04-28T02:01:50;101264.28;;;6.57;60.03
26443;BME280;5563;52.296;6.806;2023-04-28T02:04:17;101259.84;;;6.57;60.21
26443;BME280;5563;52.296;6.806;2023-04-28T02:06:50;101262.13;;;6.64;60.38
26443;BME280;5563;52.296;6.806;2023-04-28T02:09:23;101250.78;;;6.62;60.09
26443;BME280;5563;52.296;6.806;2023-04-28T02:11:56;101255.59;;;6.69;60.47
26443;BME280;5563;52.296;6.806;2023-04-28T02:14:25;101254.00;;;6.67;60.31
26443;BME280;5563;52.296;6.806;2023-04-28T02:17:06;101258.00;;;6.74;60.23
26443;BME280;5563;52.296;6.806;2023-04-28T02:19:33;101249.09;;;6.75;60.26
26443;BME280;5563;52.296;6.806;2023-04-28T02:22:06;101242.00;;;6.75;60.35
26443;BME280;5563;52.296;6.806;2023-04-28T02:24:38;101240.22;;;6.76;60.16
26443;BME280;5563;52.296;6.806;2023-04-28T02:27:11;101238.25;;;6.79;60.51
26443;BME280;5563;52.296;6.806;2023-04-28T02:29:39;101239.94;;;6.80;60.39
26443;BME280;5563;52.296;6.806;2023-04-28T02:32:13;101240.81;;;6.81;60.24
26443;BME280;5563;52.296;6.806;2023-04-28T02:34:40;101224.31;;;6.76;60.71
26443;BME280;5563;52.296;6.806;2023-04-28T02:37:14;101226.78;;;6.79;60.80
26443;BME280;5563;52.296;6.806;2023-04-28T02:39:43;101241.38;;;6.86;60.98
26443;BME280;5563;52.296;6.806;2023-04-28T02:42:17;101240.41;;;6.87;60.94
26443;BME280;5563;52.296;6.806;2023-04-28T02:44:44;101215.22;;;6.80;61.01
26443;BME280;5563;52.296;6.806;2023-04-28T02:47:17;101203.38;;;6.71;60.86
26443;BME280;5563;52.296;6.806;2023-04-28T02:49:50;101213.09;;;6.86;61.24
26443;BME280;5563;52.296;6.806;2023-04-28T02:52:18;101227.00;;;6.90;60.80
26443;BME280;5563;52.296;6.806;2023-04-28T02:54:51;101180.31;;;6.73;61.15
26443;BME280;5563;52.296;6.806;2023-04-28T02:57:23;101198.88;;;6.87;61.11
26443;BME280;5563;52.296;6.806;2023-04-28T02:59:56;101179.94;;;6.79;61.14
26443;BME280;5563;52.296;6.806;2023-04-28T03:02:23;101187.50;;;6.85;61.34
26443;BME280;5563;52.296;6.806;2023-04-28T03:04:56;101198.53;;;6.93;61.23
26443;BME280;5563;52.296;6.806;2023-04-28T03:07:24;101188.03;;;6.92;61.25
26443;BME280;5563;52.296;6.806;2023-04-28T03:09:57;101192.06;;;6.97;61.02
26443;BME280;5563;52.296;6.806;2023-04-28T03:12:24;101167.38;;;6.83;60.65
26443;BME280;5563;52.296;6.806;2023-04-28T03:14:57;101164.31;;;6.89;61.11
26443;BME280;5563;52.296;6.806;2023-04-28T03:17:24;101179.47;;;7.01;61.24
26443;BME280;5563;52.296;6.806;2023-04-28T03:20:06;101175.13;;;7.00;61.29
26443;BME280;5563;52.296;6.806;2023-04-28T03:22:33;101167.28;;;6.98;60.93
26443;BME280;5563;52.296;6.806;2023-04-28T03:25:02;101157.72;;;6.96;60.79
26443;BME280;5563;52.296;6.806;2023-04-28T03:27:35;101143.13;;;6.89;60.80
26443;BME280;5563;52.296;6.806;2023-04-28T03:30:03;101155.56;;;7.02;60.90
26443;BME280;5563;52.296;6.806;2023-04-28T03:32:47;101155.34;;;7.05;60.18
26443;BME280;5563;52.296;6.806;2023-04-28T03:35:22;101152.59;;;7.07;60.90
26443;BME280;5563;52.296;6.806;2023-04-28T03:37:55;101156.13;;;7.07;60.98
26443;BME280;5563;52.296;6.806;2023-04-28T03:40:25;101144.28;;;6.99;61.33
26443;BME280;5563;52.296;6.806;2023-04-28T03:43:01;101143.91;;;7.05;61.00
26443;BME280;5563;52.296;6.806;2023-04-28T03:45:40;101149.97;;;7.07;60.94
26443;BME280;5563;52.296;6.806;2023-04-28T03:48:16;101148.16;;;7.07;60.97
26443;BME280;5563;52.296;6.806;2023-04-28T03:50:42;101147.31;;;7.07;61.28
26443;BME280;5563;52.296;6.806;2023-04-28T03:53:17;101139.34;;;7.07;61.32
26443;BME280;5563;52.296;6.806;2023-04-28T03:55:44;101132.16;;;7.09;61.14
26443;BME280;5563;52.296;6.806;2023-04-28T03:58:18;101128.38;;;7.13;60.72
26443;BME280;5563;52.296;6.806;2023-04-28T04:00:52;101107.44;;;7.08;61.26
26443;BME280;5563;52.296;6.806;2023-04-28T04:03:26;101119.56;;;7.12;61.30
26443;BME280;5563;52.296;6.806;2023-04-28T04:05:59;101115.88;;;7.15;61.27
26443;BME280;5563;52.296;6.806;2023-04-28T04:08:27;101112.47;;;7.13;61.40
26443;BME280;5563;52.296;6.806;2023-04-28T04:11:00;101100.44;;;7.07;61.44
26443;BME280;5563;52.296;6.806;2023-04-28T04:13:27;101100.56;;;7.06;61.98
26443;BME280;5563;52.296;6.806;2023-04-28T04:16:07;101117.47;;;7.17;61.55
26443;BME280;5563;52.296;6.806;2023-04-28T04:18:47;101119.38;;;7.15;61.75
26443;BME280;5563;52.296;6.806;2023-04-28T04:21:20;101117.69;;;7.14;61.57
26443;BME280;5563;52.296;6.806;2023-04-28T04:23:47;101096.28;;;7.03;61.78
26443;BME280;5563;52.296;6.806;2023-04-28T04:26:21;101097.69;;;7.09;61.84
26443;BME280;5563;52.296;6.806;2023-04-28T04:28:54;101124.31;;;7.21;61.91
26443;BME280;5563;52.296;6.806;2023-04-28T04:31:27;101118.13;;;7.21;61.69
26443;BME280;5563;52.296;6.806;2023-04-28T04:33:54;101119.75;;;7.23;61.46
26443;BME280;5563;52.296;6.806;2023-04-28T04:36:21;101119.56;;;7.26;61.77
26443;BME280;5563;52.296;6.806;2023-04-28T04:38:55;101108.41;;;7.21;62.50
26443;BME280;5563;52.296;6.806;2023-04-28T04:41:22;101088.41;;;7.16;62.21
26443;BME280;5563;52.296;6.806;2023-04-28T04:43:55;101100.69;;;7.31;62.78
26443;BME280;5563;52.296;6.806;2023-04-28T04:46:22;101098.78;;;7.33;62.72
26443;BME280;5563;52.296;6.806;2023-04-28T04:48:49;101099.34;;;7.38;62.09
26443;BME280;5563;52.296;6.806;2023-04-28T04:51:22;101106.94;;;7.44;62.63
26443;BME280;5563;52.296;6.806;2023-04-28T04:53:55;101097.94;;;7.46;62.32
26443;BME280;5563;52.296;6.806;2023-04-28T04:56:22;101081.91;;;7.48;62.12
26443;BME280;5563;52.296;6.806;2023-04-28T04:58:57;101076.72;;;7.46;62.41
26443;BME280;5563;52.296;6.806;2023-04-28T05:01:24;101086.91;;;7.52;61.73
26443;BME280;5563;52.296;6.806;2023-04-28T05:03:57;101076.31;;;7.52;61.95
26443;BME280;5563;52.296;6.806;2023-04-28T05:06:25;101073.47;;;7.55;62.40
26443;BME280;5563;52.296;6.806;2023-04-28T05:08:58;101083.88;;;7.58;62.77
26443;BME280;5563;52.296;6.806;2023-04-28T05:11:25;101089.84;;;7.62;63.18
26443;BME280;5563;52.296;6.806;2023-04-28T05:13:58;101085.69;;;7.58;63.13
26443;BME280;5563;52.296;6.806;2023-04-28T05:16:32;101087.28;;;7.60;62.86
26443;BME280;5563;52.296;6.806;2023-04-28T05:19:06;101067.53;;;7.52;63.38
26443;BME280;5563;52.296;6.806;2023-04-28T05:21:45;101074.13;;;7.59;63.67
26443;BME280;5563;52.296;6.806;2023-04-28T05:24:21;101072.84;;;7.64;63.34
26443;BME280;5563;52.296;6.806;2023-04-28T05:26:58;101060.22;;;7.68;63.53
26443;BME280;5563;52.296;6.806;2023-04-28T05:29:25;101034.41;;;7.57;63.98
26443;BME280;5563;52.296;6.806;2023-04-28T05:31:58;101040.72;;;7.69;63.38
26443;BME280;5563;52.296;6.806;2023-04-28T05:34:32;101021.59;;;7.64;63.46
26443;BME280;5563;52.296;6.806;2023-04-28T05:36:59;101031.50;;;7.75;63.63
26443;BME280;5563;52.296;6.806;2023-04-28T05:39:26;101044.72;;;7.89;63.50
26443;BME280;5563;52.296;6.806;2023-04-28T05:41:59;101038.75;;;7.85;63.38
26443;BME280;5563;52.296;6.806;2023-04-28T05:44:26;101050.16;;;8.00;63.00
26443;BME280;5563;52.296;6.806;2023-04-28T05:46:59;101052.41;;;8.06;63.26
26443;BME280;5563;52.296;6.806;2023-04-28T05:49:27;101024.38;;;8.02;63.35
26443;BME280;5563;52.296;6.806;2023-04-28T05:52:00;101038.28;;;8.18;63.40
26443;BME280;5563;52.296;6.806;2023-04-28T05:54:27;101037.25;;;8.20;63.21
26443;BME280;5563;52.296;6.806;2023-04-28T05:57:00;101041.09;;;8.29;63.34
26443;BME280;5563;52.296;6.806;2023-04-28T05:59:27;101038.16;;;8.33;63.16
26443;BME280;5563;52.296;6.806;2023-04-28T06:02:02;101047.41;;;8.40;63.07
26443;BME280;5563;52.296;6.806;2023-04-28T06:04:29;101028.38;;;8.46;63.31
26443;BME280;5563;52.296;6.806;2023-04-28T06:07:04;101011.03;;;8.41;63.29
26443;BME280;5563;52.296;6.806;2023-04-28T06:09:31;101037.19;;;8.59;63.30
26443;BME280;5563;52.296;6.806;2023-04-28T06:11:58;101035.91;;;8.65;63.43
26443;BME280;5563;52.296;6.806;2023-04-28T06:14:31;101039.75;;;8.73;62.68
26443;BME280;5563;52.296;6.806;2023-04-28T06:16:58;101036.44;;;8.83;62.44
26443;BME280;5563;52.296;6.806;2023-04-28T06:19:32;101023.03;;;8.84;62.55
26443;BME280;5563;52.296;6.806;2023-04-28T06:22:08;101024.50;;;9.01;62.37
26443;BME280;5563;52.296;6.806;2023-04-28T06:24:41;101018.63;;;9.08;62.84
26443;BME280;5563;52.296;6.806;2023-04-28T06:27:09;101027.09;;;9.26;62.49
26443;BME280;5563;52.296;6.806;2023-04-28T06:29:46;101008.47;;;9.26;62.50
26443;BME280;5563;52.296;6.806;2023-04-28T06:32:21;101008.03;;;9.32;62.46
26443;BME280;5563;52.296;6.806;2023-04-28T06:34:54;101004.06;;;9.37;63.45
26443;BME280;5563;52.296;6.806;2023-04-28T06:37:23;100996.44;;;9.33;63.32
26443;BME280;5563;52.296;6.806;2023-04-28T06:39:57;101016.81;;;9.45;63.04
26443;BME280;5563;52.296;6.806;2023-04-28T06:42:24;101022.88;;;9.47;63.03
26443;BME280;5563;52.296;6.806;2023-04-28T06:44:57;101034.47;;;9.46;63.35
26443;BME280;5563;52.296;6.806;2023-04-28T06:47:24;101029.38;;;9.43;63.60
26443;BME280;5563;52.296;6.806;2023-04-28T06:49:51;101032.97;;;9.42;64.08
26443;BME280;5563;52.296;6.806;2023-04-28T06:52:25;101022.81;;;9.36;64.57
26443;BME280;5563;52.296;6.806;2023-04-28T06:55:08;101030.25;;;9.43;64.43
26443;BME280;5563;52.296;6.806;2023-04-28T06:57:44;101019.41;;;9.34;65.03
26443;BME280;5563;52.296;6.806;2023-04-28T07:00:11;101031.72;;;9.35;65.08
26443;BME280;5563;52.296;6.806;2023-04-28T07:02:44;101044.59;;;9.41;65.42
26443;BME280;5563;52.296;6.806;2023-04-28T07:05:20;101041.72;;;9.44;66.09
26443;BME280;5563;52.296;6.806;2023-04-28T07:07:53;101039.06;;;9.44;66.93
26443;BME280;5563;52.296;6.806;2023-04-28T07:10:20;101029.38;;;9.43;67.32
26443;BME280;5563;52.296;6.806;2023-04-28T07:12:53;101043.88;;;9.39;67.52
26443;BME280;5563;52.296;6.806;2023-04-28T07:15:27;101036.97;;;9.36;67.48
26443;BME280;5563;52.296;6.806;2023-04-28T07:18:06;101042.06;;;9.39;68.20
26443;BME280;5563;52.296;6.806;2023-04-28T07:20:39;101051.72;;;9.40;68.78
26443;BME280;5563;52.296;6.806;2023-04-28T07:23:14;101040.47;;;9.37;69.31
26443;BME280;5563;52.296;6.806;2023-04-28T07:25:48;101050.66;;;9.43;68.74
26443;BME280;5563;52.296;6.806;2023-04-28T07:28:22;101052.34;;;9.44;68.98
26443;BME280;5563;52.296;6.806;2023-04-28T07:30:49;101055.03;;;9.44;68.98
26443;BME280;5563;52.296;6.806;2023-04-28T07:33:16;101058.41;;;9.46;69.76
26443;BME280;5563;52.296;6.806;2023-04-28T07:35:52;101048.88;;;9.43;70.08
26443;BME280;5563;52.296;6.806;2023-04-28T07:38:19;101057.38;;;9.48;70.00
26443;BME280;5563;52.296;6.806;2023-04-28T07:40:52;101044.06;;;9.48;71.69
26443;BME280;5563;52.296;6.806;2023-04-28T07:43:19;101032.66;;;9.46;72.30
26443;BME280;5563;52.296;6.806;2023-04-28T07:45:52;101018.13;;;9.39;73.01
26443;BME280;5563;52.296;6.806;2023-04-28T07:48:21;101008.41;;;9.38;73.55
26443;BME280;5563;52.296;6.806;2023-04-28T07:50:54;101001.75;;;9.33;74.84
26443;BME280;5563;52.296;6.806;2023-04-28T07:53:22;100983.69;;;9.25;75.80
26443;BME280;5563;52.296;6.806;2023-04-28T07:55:55;100987.41;;;9.23;76.95
26443;BME280;5563;52.296;6.806;2023-04-28T07:58:37;100990.53;;;9.17;76.51
26443;BME280;5563;52.296;6.806;2023-04-28T08:01:13;101003.81;;;9.17;77.21
26443;BME280;5563;52.296;6.806;2023-04-28T08:03:55;101001.56;;;9.23;77.68
26443;BME280;5563;52.296;6.806;2023-04-28T08:06:25;100993.78;;;9.33;78.61
26443;BME280;5563;52.296;6.806;2023-04-28T08:08:59;100999.66;;;9.49;79.25
26443;BME280;5563;52.296;6.806;2023-04-28T08:11:33;101009.47;;;9.72;79.68
26443;BME280;5563;52.296;6.806;2023-04-28T08:14:07;101004.31;;;9.93;79.19
26443;BME280;5563;52.296;6.806;2023-04-28T08:16:40;101002.00;;;10.12;79.44
26443;BME280;5563;52.296;6.806;2023-04-28T08:19:13;101003.38;;;10.28;79.62
26443;BME280;5563;52.296;6.806;2023-04-28T08:21:47;101003.50;;;10.38;78.47
26443;BME280;5563;52.296;6.806;2023-04-28T08:24:20;100996.97;;;10.42;79.00
26443;BME280;5563;52.296;6.806;2023-04-28T08:26:47;100996.63;;;10.46;79.10
26443;BME280;5563;52.296;6.806;2023-04-28T08:29:20;101000.84;;;10.49;79.27
26443;BME280;5563;52.296;6.806;2023-04-28T08:31:48;100996.00;;;10.54;79.36
26443;BME280;5563;52.296;6.806;2023-04-28T08:34:21;101004.88;;;10.65;79.55
26443;BME280;5563;52.296;6.806;2023-04-28T08:36:48;101000.28;;;10.67;79.33
26443;BME280;5563;52.296;6.806;2023-04-28T08:39:21;101000.75;;;10.72;78.98
26443;BME280;5563;52.296;6.806;2023-04-28T08:41:55;100999.03;;;10.71;79.32
26443;BME280;5563;52.296;6.806;2023-04-28T08:44:32;100995.78;;;10.79;79.75
26443;BME280;5563;52.296;6.806;2023-04-28T08:47:03;100994.94;;;10.89;80.24
26443;BME280;5563;52.296;6.806;2023-04-28T08:49:43;100993.94;;;11.02;79.67
26443;BME280;5563;52.296;6.806;2023-04-28T08:52:12;100987.25;;;11.07;79.96
26443;BME280;5563;52.296;6.806;2023-04-28T08:54:49;101006.41;;;11.12;79.88
26443;BME280;5563;52.296;6.806;2023-04-28T08:57:18;100987.50;;;11.15;80.16
26443;BME280;5563;52.296;6.806;2023-04-28T08:59:59;100997.66;;;11.21;79.87
26443;BME280;5563;52.296;6.806;2023-04-28T09:02:32;101003.28;;;11.18;80.28
26443;BME280;5563;52.296;6.806;2023-04-28T09:05:00;100990.06;;;11.17;80.24
26443;BME280;5563;52.296;6.806;2023-04-28T09:07:34;100986.41;;;11.18;80.33
26443;BME280;5563;52.296;6.806;2023-04-28T09:10:27;100978.91;;;11.23;80.73
26443;BME280;5563;52.296;6.806;2023-04-28T09:13:00;100987.09;;;11.31;80.79
26443;BME280;5563;52.296;6.806;2023-04-28T09:15:37;100991.97;;;11.37;81.00
26443;BME280;5563;52.296;6.806;2023-04-28T09:18:14;100983.69;;;11.40;80.35
26443;BME280;5563;52.296;6.806;2023-04-28T09:20:47;100981.50;;;11.45;80.20
26443;BME280;5563;52.296;6.806;2023-04-28T09:23:21;100977.47;;;11.50;80.79
26443;BME280;5563;52.296;6.806;2023-04-28T09:25:58;100973.56;;;11.54;80.78
26443;BME280;5563;52.296;6.806;2023-04-28T09:28:33;100973.19;;;11.59;81.28
26443;BME280;5563;52.296;6.806;2023-04-28T09:31:05;100968.22;;;11.65;80.86
26443;BME280;5563;52.296;6.806;2023-04-28T09:33:57;100971.97;;;11.74;80.63
26443;BME280;5563;52.296;6.806;2023-04-28T09:36:28;100972.41;;;11.79;80.39
26443;BME280;5563;52.296;6.806;2023-04-28T09:39:04;100976.28;;;11.86;81.20
26443;BME280;5563;52.296;6.806;2023-04-28T09:41:49;100965.63;;;11.95;80.44
26443;BME280;5563;52.296;6.806;2023-04-28T09:44:22;100968.06;;;11.99;80.07
26443;BME280;5563;52.296;6.806;2023-04-28T09:46:49;100970.47;;;12.02;80.17
26443;BME280;5563;52.296;6.806;2023-04-28T09:49:22;100968.38;;;12.05;80.19
26443;BME280;5563;52.296;6.806;2023-04-28T09:51:49;100953.06;;;12.07;80.34
26443;BME280;5563;52.296;6.806;2023-04-28T09:54:24;100960.31;;;12.16;80.19
26443;BME280;5563;52.296;6.806;2023-04-28T09:56:54;100947.84;;;12.26;81.06
26443;BME280;5563;52.296;6.806;2023-04-28T09:59:29;100948.66;;;12.47;79.87
26443;BME280;5563;52.296;6.806;2023-04-28T10:01:56;100948.03;;;12.64;79.43
26443;BME280;5563;52.296;6.806;2023-04-28T10:04:23;100950.50;;;12.86;79.05
26443;BME280;5563;52.296;6.806;2023-04-28T10:06:57;100940.88;;;13.05;78.65
26443;BME280;5563;52.296;6.806;2023-04-28T10:09:24;100926.53;;;13.15;77.86
26443;BME280;5563;52.296;6.806;2023-04-28T10:11:59;100931.78;;;13.26;77.88
26443;BME280;5563;52.296;6.806;2023-04-28T10:14:29;100927.25;;;13.36;78.03
26443;BME280;5563;52.296;6.806;2023-04-28T10:17:12;100930.81;;;13.56;77.02
26443;BME280;5563;52.296;6.806;2023-04-28T10:19:56;100930.97;;;13.64;76.19
26443;BME280;5563;52.296;6.806;2023-04-28T10:22:47;100930.38;;;13.51;75.11
26443;BME280;5563;52.296;6.806;2023-04-28T10:25:25;100926.56;;;13.44;76.51
26443;BME280;5563;52.296;6.806;2023-04-28T10:28:00;100918.00;;;13.50;77.42
26443;BME280;5563;52.296;6.806;2023-04-28T10:30:30;100911.34;;;13.54;77.23
26443;BME280;5563;52.296;6.806;2023-04-28T10:35:40;100901.03;;;13.87;76.30
26443;BME280;5563;52.296;6.806;2023-04-28T10:38:19;100898.03;;;14.09;75.21
26443;BME280;5563;52.296;6.806;2023-04-28T10:40:50;100899.72;;;14.30;74.80
26443;BME280;5563;52.296;6.806;2023-04-28T10:56:24;100892.16;;;15.42;71.40
26443;BME280;5563;52.296;6.806;2023-04-28T10:58:59;100890.34;;;15.33;71.39
26443;BME280;5563;52.296;6.806;2023-04-28T11:01:27;100892.75;;;15.18;71.30
26443;BME280;5563;52.296;6.806;2023-04-28T11:04:06;100886.66;;;14.98;71.79
26443;BME280;5563;52.296;6.806;2023-04-28T11:06:46;100881.38;;;14.79;72.34
26443;BME280;5563;52.296;6.806;2023-04-28T11:12:13;100891.81;;;14.55;72.93
26443;BME280;5563;52.296;6.806;2023-04-28T11:14:47;100881.72;;;14.40;73.79
26443;BME280;5563;52.296;6.806;2023-04-28T11:17:39;100884.00;;;14.35;73.33
26443;BME280;5563;52.296;6.806;2023-04-28T11:20:20;100882.19;;;14.26;73.22
26443;BME280;5563;52.296;6.806;2023-04-28T11:22:51;100878.66;;;14.16;73.93
26443;BME280;5563;52.296;6.806;2023-04-28T11:25:24;100873.91;;;14.00;74.77
26443;BME280;5563;52.296;6.806;2023-04-28T11:27:51;100881.09;;;13.99;74.99
26443;BME280;5563;52.296;6.806;2023-04-28T11:30:25;100883.78;;;13.99;75.22
26443;BME280;5563;52.296;6.806;2023-04-28T11:33:01;100883.66;;;13.91;77.03
26443;BME280;5563;52.296;6.806;2023-04-28T11:35:42;100888.78;;;13.85;76.92
26443;BME280;5563;52.296;6.806;2023-04-28T11:38:09;100876.22;;;13.76;76.91
26443;BME280;5563;52.296;6.806;2023-04-28T11:40:58;100879.22;;;13.73;76.42
26443;BME280;5563;52.296;6.806;2023-04-28T11:43:31;100881.19;;;13.71;77.13
26443;BME280;5563;52.296;6.806;2023-04-28T11:46:22;100881.03;;;13.72;77.64
26443;BME280;5563;52.296;6.806;2023-04-28T11:49:02;100869.91;;;13.67;78.35
26443;BME280;5563;52.296;6.806;2023-04-28T11:51:30;100890.34;;;13.78;78.49
26443;BME280;5563;52.296;6.806;2023-04-28T11:54:05;100888.06;;;13.73;80.03
26443;BME280;5563;52.296;6.806;2023-04-28T11:56:38;100886.94;;;13.76;80.57
26443;BME280;5563;52.296;6.806;2023-04-28T11:59:12;100874.97;;;13.80;81.45
26443;BME280;5563;52.296;6.806;2023-04-28T12:01:53;100873.94;;;13.90;81.59
26443;BME280;5563;52.296;6.806;2023-04-28T12:07:14;100874.75;;;14.00;80.46
26443;BME280;5563;52.296;6.806;2023-04-28T12:10:10;100883.81;;;13.90;79.68
26443;BME280;5563;52.296;6.806;2023-04-28T12:12:38;100885.97;;;13.67;80.71
26443;BME280;5563;52.296;6.806;2023-04-28T12:15:19;100868.06;;;13.39;80.96
26443;BME280;5563;52.296;6.806;2023-04-28T12:17:53;100893.44;;;13.45;81.95
26443;BME280;5563;52.296;6.806;2023-04-28T12:23:07;100884.69;;;13.24;82.57
26443;BME280;5563;52.296;6.806;2023-04-28T12:25:43;100885.53;;;13.24;83.81
26443;BME280;5563;52.296;6.806;2023-04-28T12:28:17;100887.66;;;13.21;84.15
26443;BME280;5563;52.296;6.806;2023-04-28T12:30:44;100878.91;;;13.19;84.22
26443;BME280;5563;52.296;6.806;2023-04-28T12:33:24;100886.94;;;13.19;84.05
26443;BME280;5563;52.296;6.806;2023-04-28T12:35:57;100886.09;;;13.18;84.71
26443;BME280;5563;52.296;6.806;2023-04-28T12:38:31;100885.84;;;13.21;85.06
26443;BME280;5563;52.296;6.806;2023-04-28T12:41:05;100889.34;;;13.22;85.43
26443;BME280;5563;52.296;6.806;2023-04-28T12:43:39;100884.97;;;13.21;85.80
26443;BME280;5563;52.296;6.806;2023-04-28T12:46:12;100887.50;;;13.22;85.27
26443;BME280;5563;52.296;6.806;2023-04-28T12:48:48;100884.13;;;13.20;86.12
26443;BME280;5563;52.296;6.806;2023-04-28T12:51:21;100874.56;;;13.18;86.03
26443;BME280;5563;52.296;6.806;2023-04-28T12:53:54;100880.63;;;13.20;85.41
26443;BME280;5563;52.296;6.806;2023-04-28T12:56:21;100888.06;;;13.26;85.14
26443;BME280;5563;52.296;6.806;2023-04-28T12:58:55;100889.50;;;13.30;85.34
26443;BME280;5563;52.296;6.806;2023-04-28T13:01:22;100888.91;;;13.36;85.54
26443;BME280;5563;52.296;6.806;2023-04-28T13:03:56;100882.19;;;13.32;85.96
26443;BME280;5563;52.296;6.806;2023-04-28T13:06:30;100885.28;;;13.37;86.30
26443;BME280;5563;52.296;6.806;2023-04-28T13:09:05;100882.31;;;13.40;86.21
26443;BME280;5563;52.296;6.806;2023-04-28T13:11:32;100881.19;;;13.42;86.78
26443;BME280;5563;52.296;6.806;2023-04-28T13:14:06;100873.97;;;13.43;87.05
26443;BME280;5563;52.296;6.806;2023-04-28T13:16:34;100858.19;;;13.40;86.06
26443;BME280;5563;52.296;6.806;2023-04-28T13:19:08;100869.63;;;13.51;86.25
26443;BME280;5563;52.296;6.806;2023-04-28T13:21:40;100847.06;;;13.54;86.23
26443;BME280;5563;52.296;6.806;2023-04-28T13:24:15;100864.09;;;13.72;85.90
26443;BME280;5563;52.296;6.806;2023-04-28T13:26:42;100859.13;;;13.86;85.53
26443;BME280;5563;52.296;6.806;2023-04-28T13:29:17;100855.13;;;14.09;85.93
26443;BME280;5563;52.296;6.806;2023-04-28T13:31:45;100846.34;;;14.27;85.27
26443;BME280;5563;52.296;6.806;2023-04-28T13:34:19;100844.19;;;14.40;83.93
26443;BME280;5563;52.296;6.806;2023-04-28T13:36:46;100842.28;;;14.50;84.00
26443;BME280;5563;52.296;6.806;2023-04-28T13:39:23;100823.03;;;14.37;83.26
26443;BME280;5563;52.296;6.806;2023-04-28T13:41:49;100825.97;;;14.34;83.01
26443;BME280;5563;52.296;6.806;2023-04-28T13:44:23;100822.06;;;14.28;83.63
26443;BME280;5563;52.296;6.806;2023-04-28T13:46:56;100825.81;;;14.35;83.77
26443;BME280;5563;52.296;6.806;2023-04-28T13:49:23;100833.88;;;14.35;83.83
26443;BME280;5563;52.296;6.806;2023-04-28T13:51:56;100826.59;;;14.28;83.30
26443;BME280;5563;52.296;6.806;2023-04-28T13:54:23;100828.97;;;14.21;84.14
26443;BME280;5563;52.296;6.806;2023-04-28T13:56:56;100831.56;;;14.13;84.40
26443;BME280;5563;52.296;6.806;2023-04-28T13:59:24;100822.66;;;14.13;84.31
26443;BME280;5563;52.296;6.806;2023-04-28T14:01:57;100823.81;;;14.10;84.39